createdAt,value
2022-11-25T00:02:59.200Z,6.35
2022-11-25T00:08:00.905Z,6.41
2022-11-25T00:13:02.562Z,6.68
2022-11-25T00:18:04.221Z,6.72
2022-11-25T00:23:05.773Z,6.58
2022-11-25T00:28:07.338Z,6.50
2022-11-25T00:33:08.903Z,6.45
2022-11-25T00:38:10.473Z,6.54
2022-11-25T00:43:30.665Z,6.47
2022-11-25T00:48:32.222Z,6.44
2022-11-25T00:53:33.778Z,6.44
2022-11-25T00:58:35.344Z,6.41
2022-11-25T01:03:37.249Z,6.41
2022-11-25T01:08:39.003Z,6.37
2022-11-25T01:13:40.563Z,6.22
2022-11-25T01:18:42.828Z,6.13
2022-11-25T01:23:44.630Z,6.18
2022-11-25T01:28:48.231Z,6.06
2022-11-25T01:33:59.889Z,6.20
2022-11-25T01:39:01.556Z,6.09
2022-11-25T01:44:05.631Z,6.23
2022-11-25T01:49:10.692Z,6.09
2022-11-25T01:54:14.341Z,6.17
2022-11-25T01:59:16.322Z,6.03
2022-11-25T02:04:19.449Z,6.11
2022-11-25T02:09:22.583Z,6.04
2022-11-25T02:14:25.484Z,6.00
2022-11-25T02:19:45.798Z,5.98
2022-11-25T02:24:48.954Z,6.15
2022-11-25T02:29:50.695Z,6.02
2022-11-25T02:34:52.265Z,5.91
2022-11-25T02:39:54.888Z,5.99
2022-11-25T02:44:56.774Z,5.99
2022-11-25T02:49:59.086Z,6.03
2022-11-25T02:55:00.671Z,6.00
2022-11-25T03:00:02.602Z,6.09
2022-11-25T03:05:05.073Z,6.03
2022-11-25T03:10:07.070Z,6.01
2022-11-25T03:15:10.316Z,6.01
2022-11-25T03:20:15.222Z,6.08
2022-11-25T03:25:17.538Z,6.06
2022-11-25T03:30:22.988Z,6.20
2022-11-25T03:35:27.804Z,6.09
2022-11-25T03:40:29.416Z,6.21
2022-11-25T03:45:31.056Z,6.09
2022-11-25T03:50:35.058Z,6.11
2022-11-25T03:55:36.690Z,6.17
2022-11-25T04:00:39.304Z,6.11
2022-11-25T04:05:41.622Z,6.14
2022-11-25T04:10:43.244Z,6.17
2022-11-25T04:15:47.226Z,6.22
2022-11-25T04:20:50.746Z,6.18
2022-11-25T04:25:52.591Z,6.21
2022-11-25T04:31:00.092Z,6.29
2022-11-25T04:36:02.796Z,6.29
2022-11-25T04:41:04.497Z,6.39
2022-11-25T04:46:16.769Z,6.27
2022-11-25T04:51:22.459Z,6.15
2022-11-25T04:56:28.071Z,6.15
2022-11-25T05:01:31.006Z,6.29
2022-11-25T05:06:42.984Z,6.28
2022-11-25T05:11:45.007Z,6.26
2022-11-25T05:16:46.719Z,6.22
2022-11-25T05:21:48.556Z,6.12
2022-11-25T05:26:50.269Z,5.93
2022-11-25T05:31:51.898Z,5.87
2022-11-25T05:36:53.781Z,5.86
2022-11-25T05:41:55.848Z,5.71
2022-11-25T05:46:57.523Z,5.64
2022-11-25T05:52:01.114Z,5.53
2022-11-25T05:57:06.899Z,5.67
2022-11-25T06:02:16.441Z,5.51
2022-11-25T06:07:18.192Z,5.42
2022-11-25T06:12:22.797Z,5.41
2022-11-25T06:17:24.454Z,5.39
2022-11-25T06:22:34.899Z,5.37
2022-11-25T06:28:04.475Z,5.38
2022-11-25T06:32:58.265Z,5.48
2022-11-25T06:38:00.028Z,5.40
2022-11-25T06:43:01.607Z,5.39
2022-11-25T06:48:03.395Z,5.25
2022-11-25T06:53:04.940Z,5.29
2022-11-25T06:58:28.331Z,5.19
2022-11-25T07:03:28.103Z,5.17
2022-11-25T07:08:33.904Z,5.11
2022-11-25T07:13:36.101Z,5.06
2022-11-25T07:18:38.603Z,5.14
2022-11-25T07:23:41.283Z,5.14
2022-11-25T07:28:43.609Z,5.10
2022-11-25T07:33:45.779Z,5.28
2022-11-25T07:38:47.820Z,5.15
2022-11-25T07:43:55.399Z,5.27
2022-11-25T07:49:06.345Z,5.27
2022-11-25T07:54:11.148Z,5.29
2022-11-25T07:59:15.172Z,5.09
2022-11-25T08:04:20.432Z,5.27
2022-11-25T08:09:24.006Z,5.25
2022-11-25T08:14:26.525Z,5.27
2022-11-25T08:19:31.430Z,5.26
2022-11-25T08:24:33.209Z,5.39
2022-11-25T08:29:35.280Z,5.24
2022-11-25T08:34:37.181Z,5.33
2022-11-25T08:39:55.666Z,5.27
2022-11-25T08:44:57.835Z,5.42
2022-11-25T08:49:59.672Z,5.35
2022-11-25T08:55:01.322Z,5.41
2022-11-25T09:00:05.772Z,5.36
2022-11-25T09:05:07.684Z,5.42
2022-11-25T09:10:12.654Z,5.37
2022-11-25T09:15:14.230Z,5.39
2022-11-25T09:20:15.867Z,5.48
2022-11-25T09:25:17.455Z,5.56
2022-11-25T09:30:19.130Z,5.58
2022-11-25T09:35:21.249Z,5.48
2022-11-25T09:40:54.092Z,5.61
2022-11-25T09:46:42.640Z,5.67
2022-11-25T09:52:10.531Z,5.82
2022-11-25T09:57:24.100Z,5.77
2022-11-25T10:02:35.516Z,5.90
2022-11-25T10:07:41.418Z,6.08
2022-11-25T10:12:45.345Z,6.12
2022-11-25T10:17:53.269Z,6.12
2022-11-25T10:22:57.856Z,6.23
2022-11-25T10:28:05.974Z,6.38
2022-11-25T10:33:33.463Z,6.39
2022-11-25T10:38:45.450Z,6.41
2022-11-25T10:43:47.693Z,6.58
2022-11-25T10:49:35.280Z,6.66
2022-11-25T10:54:36.889Z,6.74
2022-11-25T10:59:40.056Z,6.85
2022-11-25T11:05:10.383Z,6.86
2022-11-25T11:10:14.988Z,6.99
2022-11-25T11:15:23.660Z,7.01
2022-11-25T11:20:29.470Z,7.14
2022-11-25T11:25:33.853Z,7.26
2022-11-25T11:30:35.425Z,7.32
2022-11-25T11:35:55.065Z,7.37
2022-11-25T11:41:16.552Z,7.41
2022-11-25T11:46:47.322Z,7.51
2022-11-25T11:52:10.817Z,7.57
2022-11-25T11:57:27.454Z,7.67
2022-11-25T12:02:32.241Z,7.76
2022-11-25T12:08:07.955Z,7.81
2022-11-25T12:13:35.235Z,7.84
2022-11-25T12:19:09.088Z,7.91
2022-11-25T12:24:27.346Z,8.04
2022-11-25T12:29:53.999Z,8.09
2022-11-25T12:35:19.005Z,8.08
2022-11-25T12:40:27.034Z,8.15
2022-11-25T12:45:28.764Z,8.14
2022-11-25T12:50:35.795Z,8.23
2022-11-25T12:55:39.556Z,8.21
2022-11-25T13:00:42.735Z,8.31
2022-11-25T13:06:10.661Z,8.34
2022-11-25T13:11:12.592Z,8.40
2022-11-25T13:16:14.905Z,8.42
2022-11-25T13:21:18.500Z,8.43
2022-11-25T13:26:33.952Z,8.46
2022-11-25T13:31:59.420Z,8.48
2022-11-25T13:37:12.596Z,8.46
2022-11-25T13:42:21.501Z,8.47
2022-11-25T13:47:33.061Z,8.45
2022-11-25T13:52:38.231Z,8.41
2022-11-25T13:57:40.766Z,8.37
2022-11-25T14:02:47.044Z,8.27
2022-11-25T14:08:10.527Z,8.34
2022-11-25T14:13:20.985Z,8.22
2022-11-25T14:24:31.150Z,8.20
2022-11-25T14:29:32.628Z,8.24
2022-11-25T14:34:39.878Z,8.10
2022-11-25T14:39:49.441Z,8.00
2022-11-25T14:44:53.170Z,7.92
2022-11-25T14:50:18.978Z,8.00
2022-11-25T14:55:27.377Z,7.98
2022-11-25T15:00:28.909Z,7.87
2022-11-25T15:05:34.971Z,7.66
2022-11-25T15:10:40.441Z,7.69
2022-11-25T15:15:45.134Z,7.47
2022-11-25T15:20:48.958Z,7.47
2022-11-25T15:25:52.274Z,7.66
2022-11-25T15:31:01.168Z,7.47
2022-11-25T15:36:03.016Z,7.31
2022-11-25T15:41:06.160Z,7.20
2022-11-25T15:46:08.901Z,7.22
2022-11-25T15:51:38.649Z,7.26
2022-11-25T15:56:45.881Z,7.30
2022-11-25T16:01:47.609Z,7.21
2022-11-25T16:06:53.818Z,7.17
2022-11-25T16:12:04.776Z,7.14
2022-11-25T16:17:10.888Z,7.11
2022-11-25T16:22:16.496Z,7.05
2022-11-25T16:27:28.281Z,7.20
2022-11-25T16:32:31.359Z,7.12
2022-11-25T16:37:32.944Z,7.16
2022-11-25T16:42:34.527Z,7.22
2022-11-25T16:47:36.119Z,7.27
2022-11-25T16:52:37.716Z,7.34
2022-11-25T16:57:40.722Z,7.28
2022-11-25T17:02:42.519Z,7.25
2022-11-25T17:07:44.288Z,7.21
2022-11-25T17:12:46.690Z,7.20
2022-11-25T17:17:48.729Z,7.14
2022-11-25T17:22:51.597Z,7.19
2022-11-25T17:27:53.897Z,7.08
2022-11-25T17:33:04.168Z,7.09
2022-11-25T17:38:20.428Z,6.90
2022-11-25T17:43:22.130Z,6.96
2022-11-25T17:48:24.073Z,7.12
2022-11-25T17:53:25.597Z,6.95
2022-11-25T17:58:27.146Z,6.86
2022-11-25T18:03:28.694Z,6.92
2022-11-25T18:08:30.279Z,6.92
2022-11-25T18:13:36.384Z,6.90
2022-11-25T18:18:38.218Z,6.86
2022-11-25T18:23:39.783Z,6.93
2022-11-25T18:28:41.388Z,7.06
2022-11-25T18:33:43.310Z,7.03
2022-11-25T18:38:45.537Z,6.92
2022-11-25T18:43:47.226Z,7.04
2022-11-25T18:48:48.780Z,7.07
2022-11-25T18:53:50.337Z,7.03
2022-11-25T18:58:51.977Z,7.06
2022-11-25T19:03:55.280Z,6.92
2022-11-25T19:08:56.847Z,7.02
2022-11-25T19:14:03.687Z,6.89
2022-11-25T19:19:05.362Z,7.05
2022-11-25T19:24:12.941Z,6.92
2022-11-25T19:29:23.695Z,7.08
2022-11-25T19:34:38.325Z,6.99
2022-11-25T19:39:40.095Z,7.02
2022-11-25T19:44:42.669Z,7.03
2022-11-25T19:49:44.611Z,6.99
2022-11-25T19:54:46.377Z,7.09
2022-11-25T19:59:48.312Z,7.16
2022-11-25T20:04:53.696Z,7.04
2022-11-25T20:10:14.666Z,6.92
2022-11-25T20:15:16.705Z,6.90
2022-11-25T20:20:31.783Z,7.02
2022-11-25T20:25:41.633Z,7.09
2022-11-25T20:30:43.287Z,7.10
2022-11-25T20:35:46.701Z,7.10
2022-11-25T20:40:50.293Z,7.07
2022-11-25T20:45:51.869Z,7.10
2022-11-25T20:50:53.696Z,7.19
2022-11-25T20:55:55.510Z,7.00
2022-11-25T21:00:58.080Z,7.19
2022-11-25T21:06:00.106Z,7.12
2022-11-25T21:11:01.855Z,6.96
2022-11-25T21:16:03.515Z,6.97
2022-11-25T21:21:14.818Z,6.94
2022-11-25T21:26:24.031Z,7.14
2022-11-25T21:31:26.324Z,7.12
2022-11-25T21:36:29.622Z,7.10
2022-11-25T21:41:31.296Z,7.19
2022-11-25T21:46:33.124Z,7.17
2022-11-25T21:51:34.727Z,7.18
2022-11-25T21:56:37.652Z,7.15
2022-11-25T22:01:39.337Z,7.10
2022-11-25T22:06:41.009Z,7.15
2022-11-25T22:11:47.926Z,7.13
2022-11-25T22:16:49.703Z,7.16
2022-11-25T22:21:51.332Z,7.09
2022-11-25T22:26:57.704Z,7.09
2022-11-25T22:31:59.866Z,7.17
2022-11-25T22:37:01.573Z,7.24
2022-11-25T22:42:06.826Z,7.37
2022-11-25T22:47:38.359Z,7.34
2022-11-25T22:52:39.948Z,7.49
2022-11-25T22:57:41.540Z,7.50
2022-11-25T23:02:43.123Z,7.50
2022-11-25T23:07:44.771Z,7.61
2022-11-25T23:12:46.812Z,7.64
2022-11-25T23:17:49.763Z,7.65
2022-11-25T23:22:51.344Z,7.76
2022-11-25T23:27:53.050Z,7.82
2022-11-25T23:32:54.667Z,7.81
2022-11-25T23:37:57.369Z,7.83
2022-11-25T23:42:58.997Z,7.92
2022-11-25T23:48:00.579Z,7.96
2022-11-25T23:53:05.298Z,8.07
2022-11-25T23:58:14.586Z,8.08
